Terminal Aerodrome Forecast
Issued by NWS Wakefield, VA

Home | Current Version | Previous Version | Text Only | Print | Product List | Glossary On
Versions: 1 2 3 4 5 6 7 8 9 10 11 12 13
000
FTUS41 KAKQ 311730
TAFECG
TAF
KECG 311730Z 3118/0118 25008KT P6SM SCT030 SCT050 OVC080
      TEMPO 3118/3120 5SM -RA BKN035
     FM010800 25002KT 5SM BR BKN040 OVC100
     FM011000 27001KT 2SM BR OVC040
     FM011300 30003KT 6SM BR OVC040=

USA.gov is the U.S. government's official web portal to all federal, state and local government web resources and services.